createdAt,value
2023-03-01T00:01:50.278Z,3.93
2023-03-01T00:04:19.229Z,6.47
2023-03-01T00:06:50.959Z,11.53
2023-03-01T00:09:20.036Z,16.13
2023-03-01T00:11:49.041Z,5.83
2023-03-01T00:14:20.345Z,8.13
2023-03-01T00:16:52.062Z,9.70
2023-03-01T00:19:23.455Z,12.53
2023-03-01T00:21:55.663Z,15.17
2023-03-01T00:24:27.013Z,15.40
2023-03-01T00:26:59.672Z,15.30
2023-03-01T00:29:28.560Z,13.07
2023-03-01T00:31:59.338Z,11.97
2023-03-01T00:34:31.285Z,6.80
2023-03-01T00:37:01.805Z,5.40
2023-03-01T00:39:30.649Z,3.57
2023-03-01T00:41:59.901Z,3.13
2023-03-01T00:44:29.548Z,3.17
2023-03-01T00:46:58.358Z,3.00
2023-03-01T00:49:28.707Z,3.43
2023-03-01T00:51:59.144Z,3.03
2023-03-01T00:54:29.629Z,3.00
2023-03-01T00:56:58.452Z,3.00
2023-03-01T00:59:30.675Z,2.97
2023-03-01T01:02:01.051Z,2.87
2023-03-01T01:04:30.020Z,2.70
2023-03-01T01:06:58.894Z,3.50
2023-03-01T01:09:28.045Z,2.90
2023-03-01T01:11:56.744Z,2.73
2023-03-01T01:14:27.058Z,2.70
2023-03-01T01:16:55.926Z,2.23
2023-03-01T01:19:26.209Z,2.77
2023-03-01T01:21:56.970Z,2.20
2023-03-01T01:24:27.844Z,2.23
2023-03-01T01:26:56.657Z,2.13
2023-03-01T01:29:25.492Z,2.20
2023-03-01T01:31:54.650Z,2.20
2023-03-01T01:34:25.842Z,2.33
2023-03-01T01:36:57.218Z,2.30
2023-03-01T01:39:27.804Z,2.07
2023-03-01T01:41:59.364Z,1.80
2023-03-01T01:44:29.586Z,1.80
2023-03-01T01:47:09.376Z,1.80
2023-03-01T01:49:50.241Z,1.93
2023-03-01T01:52:30.791Z,1.83
2023-03-01T01:55:14.244Z,1.73
2023-03-01T01:58:00.839Z,1.73
2023-03-01T02:00:31.419Z,1.37
2023-03-01T02:03:03.204Z,1.40
2023-03-01T02:05:43.830Z,1.53
2023-03-01T02:08:18.454Z,1.33
2023-03-01T02:10:48.592Z,1.80
2023-03-01T02:13:17.332Z,1.70
2023-03-01T02:15:48.223Z,1.53
2023-03-01T02:18:20.192Z,1.17
2023-03-01T02:21:03.791Z,1.30
2023-03-01T02:23:35.675Z,1.53
2023-03-01T02:26:16.970Z,1.47
2023-03-01T02:28:48.902Z,1.70
2023-03-01T02:31:38.694Z,1.40
2023-03-01T02:34:10.181Z,1.30
2023-03-01T02:36:58.372Z,1.97
2023-03-01T02:39:34.656Z,1.93
2023-03-01T02:42:05.199Z,1.90
2023-03-01T02:44:34.186Z,1.53
2023-03-01T02:47:06.431Z,2.10
2023-03-01T02:49:38.420Z,2.17
2023-03-01T02:52:29.133Z,1.90
2023-03-01T02:55:14.046Z,1.97
2023-03-01T02:57:47.203Z,1.80
2023-03-01T03:00:20.754Z,2.17
2023-03-01T03:02:51.941Z,1.67
2023-03-01T03:05:23.381Z,1.80
2023-03-01T03:07:55.581Z,2.03
2023-03-01T03:10:29.677Z,1.80
2023-03-01T03:13:05.943Z,2.13
2023-03-01T03:15:37.464Z,1.80
2023-03-01T03:18:13.650Z,1.97
2023-03-01T03:20:53.487Z,2.50
2023-03-01T03:23:21.486Z,2.80
2023-03-01T03:25:55.557Z,3.00
2023-03-01T03:28:29.131Z,2.60
2023-03-01T03:31:03.130Z,2.57
2023-03-01T03:33:37.984Z,2.37
2023-03-01T03:36:17.929Z,2.37
2023-03-01T03:38:50.562Z,2.63
2023-03-01T03:41:32.579Z,2.50
2023-03-01T03:44:09.151Z,2.40
2023-03-01T03:46:57.650Z,2.43
2023-03-01T03:49:28.488Z,3.13
2023-03-01T03:52:02.474Z,2.97
2023-03-01T03:54:32.893Z,3.10
2023-03-01T03:57:03.488Z,3.30
2023-03-01T03:59:35.537Z,3.50
2023-03-01T04:02:18.434Z,3.57
2023-03-01T04:04:47.426Z,4.07
2023-03-01T04:07:16.594Z,3.57
2023-03-01T04:09:48.842Z,3.63
2023-03-01T04:12:19.302Z,3.00
2023-03-01T04:15:45.873Z,3.03
2023-03-01T04:17:27.810Z,2.60
2023-03-01T04:19:57.922Z,2.67
2023-03-01T04:22:28.740Z,2.40
2023-03-01T04:25:02.315Z,2.53
2023-03-01T04:27:47.786Z,2.23
2023-03-01T04:30:17.025Z,2.50
2023-03-01T04:32:47.646Z,2.73
2023-03-01T04:35:18.127Z,2.30
2023-03-01T04:37:47.810Z,2.27
2023-03-01T04:40:17.934Z,2.57
2023-03-01T04:42:46.895Z,2.40
2023-03-01T04:45:17.608Z,2.30
2023-03-01T04:47:53.481Z,2.63
2023-03-01T04:50:27.742Z,2.13
2023-03-01T04:53:00.972Z,2.53
2023-03-01T04:55:32.988Z,2.97
2023-03-01T04:58:06.526Z,2.60
2023-03-01T05:00:35.419Z,3.37
2023-03-01T05:03:04.350Z,3.57
2023-03-01T05:05:38.585Z,3.30
2023-03-01T05:08:09.865Z,3.80
2023-03-01T05:10:40.197Z,3.87
2023-03-01T05:13:09.048Z,3.87
2023-03-01T05:15:38.076Z,3.50
2023-03-01T05:18:10.325Z,3.60
2023-03-01T05:24:44.207Z,3.97
2023-03-01T05:27:28.551Z,4.50
2023-03-01T05:30:07.699Z,4.33
2023-03-01T05:32:41.502Z,4.27
2023-03-01T05:35:16.038Z,4.27
2023-03-01T05:37:46.686Z,4.43
2023-03-01T05:40:25.276Z,4.50
2023-03-01T05:42:59.626Z,4.23
2023-03-01T05:48:33.202Z,4.27
2023-03-01T05:51:04.757Z,4.27
2023-03-01T05:53:41.834Z,4.20
2023-03-01T05:56:48.999Z,4.00
2023-03-01T06:05:52.320Z,3.60
2023-03-01T06:08:25.165Z,3.90
2023-03-01T06:10:54.966Z,3.27
2023-03-01T06:13:28.488Z,3.90
2023-03-01T06:18:45.167Z,3.43
2023-03-01T06:21:17.075Z,3.00
2023-03-01T06:23:50.222Z,3.37
2023-03-01T06:26:20.652Z,3.00
2023-03-01T06:29:07.030Z,2.87
2023-03-01T06:31:35.846Z,2.40
2023-03-01T06:34:05.081Z,2.60
2023-03-01T06:36:33.882Z,2.47
2023-03-01T06:39:11.908Z,2.13
2023-03-01T06:41:42.293Z,2.07
2023-03-01T06:44:11.323Z,2.33
2023-03-01T06:46:46.074Z,2.10
2023-03-01T06:49:19.561Z,2.70
2023-03-01T06:51:48.932Z,2.70
2023-03-01T06:54:19.025Z,2.43
2023-03-01T06:56:49.495Z,2.67
2023-03-01T06:59:31.665Z,2.30
2023-03-01T07:01:56.045Z,2.83
2023-03-01T07:13:59.793Z,2.90
2023-03-01T07:16:32.010Z,2.70
2023-03-01T07:19:08.645Z,3.17
2023-03-01T07:21:43.565Z,2.63
2023-03-01T07:24:57.117Z,3.10
2023-03-01T07:28:01.115Z,3.10
2023-03-01T07:30:35.592Z,3.03
2023-03-01T07:33:09.516Z,2.80
2023-03-01T07:35:38.592Z,2.60
2023-03-01T07:38:18.825Z,2.50
2023-03-01T07:41:13.464Z,2.27
2023-03-01T07:49:55.909Z,2.37
2023-03-01T07:52:35.773Z,2.10
2023-03-01T07:55:10.150Z,1.93
2023-03-01T07:57:38.892Z,1.80
2023-03-01T08:00:14.711Z,1.90
2023-03-01T08:02:51.817Z,2.13
2023-03-01T08:05:17.102Z,2.20
2023-03-01T08:07:45.936Z,2.47
2023-03-01T08:10:14.819Z,2.20
2023-03-01T08:12:43.761Z,2.60
2023-03-01T08:15:17.572Z,2.43
2023-03-01T08:17:49.139Z,2.23
2023-03-01T08:20:20.047Z,2.00
2023-03-01T08:22:48.066Z,2.13
2023-03-01T08:25:16.784Z,1.93
2023-03-01T08:27:45.500Z,2.20
2023-03-01T08:30:14.838Z,2.00
2023-03-01T08:32:43.610Z,2.23
2023-03-01T08:35:13.982Z,1.80
2023-03-01T08:37:42.574Z,1.70
2023-03-01T08:40:12.220Z,1.67
2023-03-01T08:42:41.317Z,2.20
2023-03-01T08:45:12.355Z,2.20
2023-03-01T08:47:41.192Z,2.50
2023-03-01T08:50:12.147Z,2.07
2023-03-01T08:52:43.436Z,2.33
2023-03-01T08:55:12.235Z,2.10
2023-03-01T08:57:46.965Z,1.83
2023-03-01T09:00:16.140Z,2.17
2023-03-01T09:02:46.962Z,2.53
2023-03-01T09:05:20.302Z,2.50
2023-03-01T09:08:02.875Z,1.90
2023-03-01T09:10:52.181Z,2.07
2023-03-01T09:13:28.609Z,1.83
2023-03-01T09:15:57.193Z,2.23
2023-03-01T09:18:25.832Z,1.70
2023-03-01T09:20:56.170Z,2.40
2023-03-01T09:23:24.727Z,1.60
2023-03-01T09:25:56.090Z,2.07
2023-03-01T09:28:30.330Z,1.80
2023-03-01T09:31:00.939Z,1.90
2023-03-01T09:33:31.393Z,2.03
2023-03-01T09:36:01.438Z,2.50
2023-03-01T09:38:30.576Z,2.00
2023-03-01T09:41:02.398Z,2.03
2023-03-01T09:43:35.922Z,3.70
2023-03-01T09:46:08.005Z,2.30
2023-03-01T09:48:39.677Z,2.20
2023-03-01T09:57:54.282Z,1.30
2023-03-01T10:01:47.702Z,1.17
2023-03-01T10:04:05.525Z,1.00
2023-03-01T10:06:47.957Z,1.20
2023-03-01T10:09:30.104Z,1.20
2023-03-01T10:12:03.457Z,1.50
2023-03-01T10:14:45.888Z,1.77
2023-03-01T10:17:23.405Z,1.70
2023-03-01T10:19:52.087Z,1.20
2023-03-01T10:22:32.624Z,1.10
2023-03-01T10:28:01.878Z,1.60
2023-03-01T10:30:47.729Z,1.53
2023-03-01T10:33:28.327Z,1.53
2023-03-01T10:36:06.907Z,1.37
2023-03-01T10:38:55.643Z,2.10
2023-03-01T10:41:46.960Z,2.00
2023-03-01T10:44:19.692Z,1.77
2023-03-01T10:46:57.189Z,1.67
2023-03-01T10:49:27.557Z,1.77
2023-03-01T10:52:00.959Z,0.98
2023-03-01T10:57:47.950Z,0.83
2023-03-01T11:00:58.938Z,0.93
2023-03-01T11:09:52.681Z,1.40
2023-03-01T11:12:54.133Z,0.87
2023-03-01T11:15:50.586Z,1.10
2023-03-01T11:18:52.903Z,2.47
2023-03-01T11:39:02.653Z,1.73
2023-03-01T11:44:37.195Z,1.10
2023-03-01T11:47:32.700Z,0.90
2023-03-01T11:50:33.484Z,1.27
2023-03-01T11:53:33.183Z,1.50
2023-03-01T12:03:12.790Z,1.87
2023-03-01T12:09:46.004Z,1.67
2023-03-01T12:12:47.156Z,2.13
2023-03-01T12:15:59.453Z,2.10
2023-03-01T12:22:49.782Z,2.43
2023-03-01T12:26:09.365Z,1.95
2023-03-01T12:29:04.207Z,2.30
2023-03-01T12:32:56.817Z,2.47
2023-03-01T12:35:13.652Z,1.85
2023-03-01T12:37:48.176Z,1.80
2023-03-01T12:40:25.452Z,1.90
2023-03-01T12:42:58.683Z,2.50
2023-03-01T12:46:03.455Z,2.37
2023-03-01T12:49:03.201Z,2.50
2023-03-01T12:52:15.085Z,2.47
2023-03-01T12:54:34.261Z,2.30
2023-03-01T12:57:24.321Z,2.55
2023-03-01T13:00:35.122Z,1.75
2023-03-01T13:03:47.958Z,2.30
2023-03-01T13:07:12.758Z,2.35
2023-03-01T13:10:08.191Z,2.30
2023-03-01T13:13:17.020Z,2.45
2023-03-01T13:15:52.883Z,2.60
2023-03-01T13:18:29.668Z,2.40
2023-03-01T13:21:05.233Z,2.47
2023-03-01T13:30:44.195Z,2.25
2023-03-01T13:33:48.550Z,2.08
2023-03-01T13:36:52.505Z,2.37
2023-03-01T13:39:57.035Z,2.30
2023-03-01T13:42:39.610Z,2.60
2023-03-01T13:45:20.196Z,2.60
2023-03-01T13:47:53.546Z,1.97
2023-03-01T13:50:27.773Z,2.83
2023-03-01T13:53:05.092Z,2.50
2023-03-01T13:55:47.425Z,2.00
2023-03-01T13:58:26.153Z,2.50
2023-03-01T14:01:09.777Z,2.83
2023-03-01T14:03:46.899Z,3.33
2023-03-01T14:06:30.187Z,3.63
2023-03-01T14:09:02.417Z,2.67
2023-03-01T14:11:52.327Z,2.67
2023-03-01T14:14:26.548Z,3.07
2023-03-01T14:17:16.342Z,2.83
2023-03-01T14:19:48.188Z,2.47
2023-03-01T14:22:26.322Z,2.30
2023-03-01T14:24:58.277Z,2.80
2023-03-01T14:27:43.214Z,2.33
2023-03-01T14:30:17.969Z,3.63
2023-03-01T14:32:58.739Z,2.80
2023-03-01T14:35:30.671Z,2.17
2023-03-01T14:37:59.763Z,2.43
2023-03-01T14:40:42.969Z,2.40
2023-03-01T14:43:15.331Z,2.03
2023-03-01T14:45:47.075Z,2.30
2023-03-01T14:48:17.537Z,2.57
2023-03-01T14:50:52.739Z,2.83
2023-03-01T14:53:34.052Z,2.20
2023-03-01T14:56:06.302Z,2.30
2023-03-01T14:58:35.807Z,3.60
2023-03-01T15:01:09.184Z,2.27
2023-03-01T15:03:46.687Z,2.37
2023-03-01T15:06:18.291Z,2.90
2023-03-01T15:08:57.474Z,2.87
2023-03-01T15:11:38.011Z,2.73
2023-03-01T15:14:10.186Z,3.00
2023-03-01T15:16:43.545Z,2.83
2023-03-01T15:19:15.221Z,2.57
2023-03-01T15:21:46.892Z,3.30
2023-03-01T15:24:24.633Z,2.77
2023-03-01T15:26:58.793Z,3.03
2023-03-01T15:29:32.196Z,3.10
2023-03-01T15:32:27.765Z,3.33
2023-03-01T15:34:56.789Z,2.63
2023-03-01T15:37:40.417Z,2.70
2023-03-01T15:40:28.121Z,3.13
2023-03-01T15:42:57.402Z,4.73
2023-03-01T15:45:28.909Z,3.13
2023-03-01T15:48:01.721Z,3.13
2023-03-01T15:50:40.718Z,4.50
2023-03-01T15:53:19.313Z,4.00
2023-03-01T15:55:49.576Z,5.10
2023-03-01T15:58:24.465Z,6.10
2023-03-01T16:01:00.901Z,5.23
2023-03-01T16:03:26.290Z,4.07
2023-03-01T16:06:00.296Z,4.40
2023-03-01T16:08:29.189Z,4.07
2023-03-01T16:10:57.888Z,3.83
2023-03-01T16:13:28.303Z,3.67
2023-03-01T16:15:56.904Z,3.70
2023-03-01T16:18:25.582Z,4.13
2023-03-01T16:20:55.302Z,2.90
2023-03-01T16:23:26.091Z,3.93
2023-03-01T16:25:54.677Z,5.47
2023-03-01T16:28:23.268Z,4.87
2023-03-01T16:30:59.658Z,5.97
2023-03-01T16:33:33.852Z,3.70
2023-03-01T16:36:12.802Z,3.80
2023-03-01T16:38:44.750Z,3.63
2023-03-01T16:41:18.842Z,3.40
2023-03-01T16:43:50.580Z,4.43
2023-03-01T16:46:29.750Z,3.90
2023-03-01T16:48:59.051Z,3.40
2023-03-01T16:51:31.259Z,3.93
2023-03-01T16:54:00.172Z,4.03
2023-03-01T16:56:30.699Z,4.37
2023-03-01T16:59:00.898Z,11.37
2023-03-01T17:01:38.767Z,4.27
2023-03-01T17:04:10.108Z,4.10
2023-03-01T17:06:41.733Z,4.53
2023-03-01T17:09:15.393Z,4.77
2023-03-01T17:12:42.448Z,5.00
2023-03-01T17:18:26.982Z,5.80
2023-03-01T17:24:31.349Z,6.57
2023-03-01T17:27:07.652Z,6.50
2023-03-01T17:29:46.424Z,7.73
2023-03-01T17:32:18.906Z,8.80
2023-03-01T17:34:47.727Z,8.07
2023-03-01T17:40:35.674Z,10.80
2023-03-01T17:43:01.897Z,8.93
2023-03-01T17:45:31.121Z,8.53
2023-03-01T17:48:05.740Z,8.80
2023-03-01T17:51:03.809Z,8.97
2023-03-01T17:53:50.818Z,9.03
2023-03-01T18:03:09.610Z,12.43
2023-03-01T18:05:40.954Z,13.10
2023-03-01T18:09:15.072Z,10.57
2023-03-01T18:14:03.286Z,10.33
2023-03-01T18:19:23.282Z,11.97
2023-03-01T18:21:53.651Z,16.97
2023-03-01T18:24:22.655Z,13.60
2023-03-01T18:26:52.838Z,13.67
2023-03-01T18:29:21.429Z,15.63
2023-03-01T18:31:52.726Z,15.20
2023-03-01T18:34:23.267Z,16.87
2023-03-01T18:37:08.096Z,20.27
2023-03-01T18:39:50.477Z,28.93
2023-03-01T18:42:10.582Z,167.87
2023-03-01T18:44:49.055Z,33.63
2023-03-01T18:47:18.168Z,213.53
2023-03-01T18:49:47.088Z,265.43
2023-03-01T18:52:15.798Z,55.90
2023-03-01T18:54:44.630Z,24.13
2023-03-01T18:57:13.291Z,41.20
2023-03-01T18:59:46.370Z,60.80
2023-03-01T19:02:17.446Z,18.80
2023-03-01T19:04:50.572Z,15.23
2023-03-01T19:07:19.507Z,15.17
2023-03-01T19:10:01.712Z,23.67
2023-03-01T19:12:31.089Z,12.60
2023-03-01T19:14:59.875Z,12.67
2023-03-01T19:17:33.104Z,16.70
2023-03-01T19:20:01.818Z,14.23
2023-03-01T19:22:31.765Z,17.20
2023-03-01T19:25:00.960Z,15.30
2023-03-01T19:27:29.806Z,13.83
2023-03-01T19:29:58.488Z,13.57
2023-03-01T19:32:27.148Z,14.13
2023-03-01T19:34:55.773Z,13.77
2023-03-01T19:37:27.339Z,14.73
2023-03-01T19:39:59.103Z,13.10
2023-03-01T19:42:28.404Z,14.30
2023-03-01T19:45:00.493Z,12.23
2023-03-01T19:47:29.238Z,12.77
2023-03-01T19:49:57.786Z,13.60
2023-03-01T19:52:26.412Z,12.20
2023-03-01T19:55:08.572Z,11.17
2023-03-01T19:57:28.079Z,11.57
2023-03-01T19:59:56.699Z,13.47
2023-03-01T20:02:28.383Z,14.30
2023-03-01T20:04:58.772Z,16.90
2023-03-01T20:07:27.575Z,15.60
2023-03-01T20:09:56.282Z,14.17
2023-03-01T20:12:24.934Z,17.63
2023-03-01T20:14:55.489Z,13.03
2023-03-01T20:17:24.386Z,20.77
2023-03-01T20:20:08.315Z,17.20
2023-03-01T20:22:37.002Z,13.90
2023-03-01T20:25:07.704Z,16.03
2023-03-01T20:27:36.753Z,14.60
2023-03-01T20:30:06.742Z,13.30
2023-03-01T20:32:36.402Z,13.23
2023-03-01T20:35:06.043Z,13.47
2023-03-01T20:37:36.396Z,18.47
2023-03-01T20:40:09.630Z,22.73
2023-03-01T20:42:38.298Z,64.63
2023-03-01T20:45:08.143Z,19.23
2023-03-01T20:47:36.816Z,18.07
2023-03-01T20:50:05.584Z,15.13
2023-03-01T20:52:42.415Z,13.90
2023-03-01T20:55:07.908Z,18.00
2023-03-01T20:57:37.085Z,20.10
2023-03-01T21:00:07.081Z,16.20
2023-03-01T21:02:35.847Z,13.60
2023-03-01T21:05:04.544Z,15.57
2023-03-01T21:07:33.879Z,12.07
2023-03-01T21:10:02.724Z,14.33
2023-03-01T21:12:32.265Z,13.57
2023-03-01T21:15:00.928Z,12.43
2023-03-01T21:17:29.522Z,15.47
2023-03-01T21:19:58.202Z,12.27
2023-03-01T21:22:29.945Z,12.03
2023-03-01T21:24:58.506Z,10.40
2023-03-01T21:27:27.128Z,11.43
2023-03-01T21:29:55.739Z,11.60
2023-03-01T21:32:27.387Z,11.07
2023-03-01T21:34:56.230Z,9.90
2023-03-01T21:37:27.742Z,11.63
2023-03-01T21:39:59.972Z,9.80
2023-03-01T21:42:28.656Z,10.10
2023-03-01T21:44:57.219Z,9.90
2023-03-01T21:47:25.808Z,9.20
2023-03-01T21:49:54.421Z,9.40
2023-03-01T21:52:23.130Z,9.03
2023-03-01T21:54:55.640Z,9.20
2023-03-01T21:57:28.081Z,8.77
2023-03-01T21:59:59.401Z,9.13
2023-03-01T22:02:36.550Z,8.07
2023-03-01T22:05:05.337Z,7.83
2023-03-01T22:07:37.017Z,7.53
2023-03-01T22:10:06.169Z,7.10
2023-03-01T22:12:37.932Z,6.83
2023-03-01T22:15:16.589Z,7.00
2023-03-01T22:17:46.739Z,6.23
2023-03-01T22:20:26.359Z,6.93
2023-03-01T22:22:55.124Z,5.90
2023-03-01T22:25:23.753Z,6.00
2023-03-01T22:27:52.396Z,6.20
2023-03-01T22:30:22.469Z,5.83
2023-03-01T22:32:51.164Z,5.73
2023-03-01T22:35:20.187Z,5.63
2023-03-01T22:37:48.848Z,5.53
2023-03-01T22:40:17.503Z,4.70
2023-03-01T22:42:46.019Z,5.43
2023-03-01T22:45:14.882Z,5.33
2023-03-01T22:47:43.473Z,4.87
2023-03-01T22:50:29.717Z,4.57
2023-03-01T22:57:00.409Z,4.10
2023-03-01T22:59:29.412Z,4.33
2023-03-01T23:01:58.340Z,4.50
2023-03-01T23:04:27.212Z,4.53
2023-03-01T23:07:00.254Z,3.90
2023-03-01T23:09:31.788Z,4.30
2023-03-01T23:12:02.059Z,4.67
2023-03-01T23:14:34.338Z,4.70
2023-03-01T23:17:05.458Z,4.87
2023-03-01T23:19:38.582Z,5.43
2023-03-01T23:22:09.149Z,5.47
2023-03-01T23:24:39.605Z,5.10
2023-03-01T23:27:08.302Z,5.40
2023-03-01T23:29:38.898Z,5.60
2023-03-01T23:32:07.964Z,4.77
2023-03-01T23:34:47.441Z,4.73
2023-03-01T23:37:18.619Z,5.37
2023-03-01T23:39:47.607Z,4.97
2023-03-01T23:42:16.099Z,4.60
2023-03-01T23:44:45.637Z,4.00
2023-03-01T23:47:14.271Z,4.47
2023-03-01T23:49:44.060Z,4.97
2023-03-01T23:52:19.968Z,4.60
2023-03-01T23:54:51.736Z,4.43
2023-03-01T23:57:20.911Z,5.20
2023-03-01T23:59:50.836Z,4.43
